CPP2 weather

Collingwood (General and Marine Hospital) Heliport
Collingwood, Ontario, Canada

Public forecast

Using degrees Celsius for public forecast. Weather courtesy of forecast.io.

METAR (pilot weather report)

Closest report is CFB Borden, 18.5 nm (34.3 km) SE. Retrieved 2019/05/25 23:00 UTC (11 minutes ago):

CYBN 252300Z AUTO 30003KT 9SM CLR 22/18 A2979 RMK SLP087

TAF (pilot weather forecast)

Forecast is more than 12 hours old.

Closest forecast is CFB Borden, 18.5 nm (34.3 km) SE. Retrieved 2019/05/24 18:33 UTC (1 day ago):

TAF TAF CYBN 241730Z 2418/2506 36010KT P6SM FEW020 BKN240 TEMPO 2418/2506 BKN020 OVC240 BECMG 2422/2424 VRB03KT RMK FCST BASED ON AUTO OBS. NXT FCST BY 250000Z